Map

Track Data

SID SEASON NUMBER BASIN SUBBASIN NAME ISO_TIME NATURE LAT LON WMO_WIND WMO_PRES WMO_AGENCY TRACK_TYPE DIST2LAND LANDFALL IFLAG USA_AGENCY USA_ATCF_ID USA_LAT USA_LON USA_RECORD USA_STATUS USA_WIND USA_PRES USA_SSHS USA_R34_NE USA_R34_SE USA_R34_SW USA_R34_NW USA_R50_NE USA_R50_SE USA_R50_SW USA_R50_NW USA_R64_NE USA_R64_SE USA_R64_SW USA_R64_NW USA_POCI USA_ROCI USA_RMW USA_EYE TOKYO_LAT TOKYO_LON TOKYO_GRADE TOKYO_WIND TOKYO_PRES TOKYO_R50_DIR TOKYO_R50_LONG TOKYO_R50_SHORT TOKYO_R30_DIR TOKYO_R30_LONG TOKYO_R30_SHORT TOKYO_LAND CMA_LAT CMA_LON CMA_CAT CMA_WIND CMA_PRES HKO_LAT HKO_LON HKO_CAT HKO_WIND HKO_PRES NEWDELHI_LAT NEWDELHI_LON NEWDELHI_GRADE NEWDELHI_WIND NEWDELHI_PRES NEWDELHI_CI NEWDELHI_DP NEWDELHI_POCI REUNION_LAT REUNION_LON REUNION_TYPE REUNION_WIND REUNION_PRES REUNION_TNUM REUNION_CI REUNION_RMW REUNION_R34_NE REUNION_R34_SE REUNION_R34_SW REUNION_R34_NW REUNION_R50_NE REUNION_R50_SE REUNION_R50_SW REUNION_R50_NW REUNION_R64_NE REUNION_R64_SE REUNION_R64_SW REUNION_R64_NW BOM_LAT BOM_LON BOM_TYPE BOM_WIND BOM_PRES BOM_TNUM BOM_CI BOM_RMW BOM_R34_NE BOM_R34_SE BOM_R34_SW BOM_R34_NW BOM_R50_NE BOM_R50_SE BOM_R50_SW BOM_R50_NW BOM_R64_NE BOM_R64_SE BOM_R64_SW BOM_R64_NW BOM_ROCI BOM_POCI BOM_EYE BOM_POS_METHOD BOM_PRES_METHOD NADI_LAT NADI_LON NADI_CAT NADI_WIND NADI_PRES WELLINGTON_LAT WELLINGTON_LON WELLINGTON_WIND WELLINGTON_PRES DS824_LAT DS824_LON DS824_STAGE DS824_WIND DS824_PRES TD9636_LAT TD9636_LON TD9636_STAGE TD9636_WIND TD9636_PRES TD9635_LAT TD9635_LON TD9635_WIND TD9635_PRES TD9635_ROCI NEUMANN_LAT NEUMANN_LON NEUMANN_CLASS NEUMANN_WIND NEUMANN_PRES MLC_LAT MLC_LON MLC_CLASS MLC_WIND MLC_PRES USA_GUST BOM_GUST BOM_GUST_PER REUNION_GUST REUNION_GUST_PER USA_SEAHGT USA_SEARAD_NE USA_SEARAD_SE USA_SEARAD_SW USA_SEARAD_NW STORM_SPEED STORM_DIR
1997240N12193 1997 75 EP CP OLIWA 1997-08-28 06:00:00 TS 11.8000 193.300 15 hurdat_epa main 1356 1356 O_____________ hurdat_epa CP021997 11.8000 -166.700 TD 15 -1 4 270
1997240N12193 1997 75 EP CP OLIWA 1997-08-28 09:00:00 TS 11.8000 193.110 main 1368 1368 P_____________ CP021997 11.8000 -166.890 TD 20 -1 4 270
1997240N12193 1997 75 EP CP OLIWA 1997-08-28 12:00:00 TS 11.8000 192.900 25 hurdat_epa main 1379 1379 O_____________ hurdat_epa CP021997 11.8000 -167.100 TD 25 -1 4 270
1997240N12193 1997 75 EP CP OLIWA 1997-08-28 15:00:00 TS 11.8000 192.657 main 1391 1391 P_____________ CP021997 11.8000 -167.343 TD 25 -1 5 270
1997240N12193 1997 75 EP CP OLIWA 1997-08-28 18:00:00 TS 11.8000 192.400 25 hurdat_epa main 1410 1410 O_____________ hurdat_epa CP021997 11.8000 -167.600 TD 25 -1 5 270
1997240N12193 1997 75 EP CP OLIWA 1997-08-28 21:00:00 TS 11.8000 192.150 main 1429 1429 P_____________ CP021997 11.8000 -167.850 TD 25 -1 5 270
1997240N12193 1997 75 EP CP OLIWA 1997-08-29 00:00:00 TS 11.8000 191.900 25 hurdat_epa main 1442 1442 O_____________ hurdat_epa CP021997 11.8000 -168.100 TD 25 -1 5 270
1997240N12193 1997 75 EP CP OLIWA 1997-08-29 03:00:00 TS 11.8000 191.642 main 1462 1462 P_____________ CP021997 11.8000 -168.358 TD 25 -1 5 270
1997240N12193 1997 75 EP CP OLIWA 1997-08-29 06:00:00 TS 11.8000 191.400 25 hurdat_epa main 1475 1475 O_____________ hurdat_epa CP021997 11.8000 -168.600 TD 25 -1 4 269
1997240N12193 1997 75 EP CP OLIWA 1997-08-29 09:00:00 TS 11.7925 191.185 main 1488 1488 P_____________ CP021997 11.7925 -168.815 TD 25 -1 4 270
1997240N12193 1997 75 EP CP OLIWA 1997-08-29 12:00:00 TS 11.8000 191.000 25 hurdat_epa main 1502 1502 O_____________ hurdat_epa CP021997 11.8000 -169.000 TD 25 -1 3 277
1997240N12193 1997 75 EP CP OLIWA 1997-08-29 15:00:00 TS 11.8350 190.835 main 1516 1507 P_____________ CP021997 11.8350 -169.165 TD 25 -1 3 289
1997240N12193 1997 75 EP CP OLIWA 1997-08-29 18:00:00 TS 11.9000 190.700 25 hurdat_epa main 1515 1513 O_____________ hurdat_epa CP021997 11.9000 -169.300 TD 25 -1 3 306
1997240N12193 1997 75 EP CP OLIWA 1997-08-29 21:00:00 TS 11.9925 190.615 main 1513 1505 P_____________ CP021997 11.9925 -169.385 TD 25 -1 3 316
1997240N12193 1997 75 EP CP OLIWA 1997-08-30 00:00:00 TS 12.1000 190.500 25 hurdat_epa main 1512 1511 O_____________ hurdat_epa CP021997 12.1000 -169.500 TD 25 -1 4 303
1997240N12193 1997 75 EP CP OLIWA 1997-08-30 03:00:00 TS 12.2075 190.280 main 1518 1517 P_____________ CP021997 12.2075 -169.720 TD 25 -1 5 292
1997240N12193 1997 75 EP CP OLIWA 1997-08-30 06:00:00 TS 12.3000 190.000 25 hurdat_epa main 1532 1532 O_____________ hurdat_epa CP021997 12.3000 -170.000 TD 25 -1 6 286
1997240N12193 1997 75 EP CP OLIWA 1997-08-30 09:00:00 TS 12.3650 189.715 main 1547 1547 P_____________ CP021997 12.3650 -170.285 TD 25 -1 6 280
1997240N12193 1997 75 EP CP OLIWA 1997-08-30 12:00:00 TS 12.4000 189.400 25 hurdat_epa main 1570 1570 O_____________ hurdat_epa CP021997 12.4000 -170.600 TD 25 -1 6 273
1997240N12193 1997 75 EP CP OLIWA 1997-08-30 15:00:00 TS 12.4000 189.057 main 1593 1593 P_____________ CP021997 12.4000 -170.943 TD 25 -1 7 270
1997240N12193 1997 75 EP CP OLIWA 1997-08-30 18:00:00 TS 12.4000 188.700 25 hurdat_epa main 1625 1625 O_____________ hurdat_epa CP021997 12.4000 -171.300 TD 25 -1 7 273
1997240N12193 1997 75 EP CP OLIWA 1997-08-30 21:00:00 TS 12.4425 188.343 main 1657 1649 P_____________ CP021997 12.4425 -171.657 TD 25 -1 7 278
1997240N12193 1997 75 EP CP OLIWA 1997-08-31 00:00:00 TS 12.5000 188.000 25 hurdat_epa main 1674 1674 O_____________ hurdat_epa CP021997 12.5000 -172.000 TD 25 -1 7 280
1997240N12193 1997 75 EP CP OLIWA 1997-08-31 03:00:00 TS 12.5500 187.685 main 1699 1691 P_____________ CP021997 12.5500 -172.315 TD 25 -1 6 280
1997240N12193 1997 75 EP CP OLIWA 1997-08-31 06:00:00 TS 12.6000 187.400 25 hurdat_epa main 1716 1716 O_____________ hurdat_epa CP021997 12.6000 -172.600 TD 25 -1 5 281
1997240N12193 1997 75 EP CP OLIWA 1997-08-31 09:00:00 TS 12.6575 187.143 main 1735 1735 P_____________ CP021997 12.6575 -172.857 TD 25 -1 5 282
1997240N12193 1997 75 EP CP OLIWA 1997-08-31 12:00:00 TS 12.7000 186.900 25 hurdat_epa main 1752 1752 O_____________ hurdat_epa CP021997 12.7000 -173.100 TD 25 -1 5 276
1997240N12193 1997 75 EP CP OLIWA 1997-08-31 15:00:00 TS 12.7075 186.650 main 1777 1777 P_____________ CP021997 12.7075 -173.350 TD 25 -1 5 270
1997240N12193 1997 75 EP CP OLIWA 1997-08-31 18:00:00 TS 12.7000 186.400 25 hurdat_epa main 1794 1794 O_____________ hurdat_epa CP021997 12.7000 -173.600 TD 25 -1 5 269
1997240N12193 1997 75 EP CP OLIWA 1997-08-31 21:00:00 TS 12.7000 186.150 main 1820 1820 P_____________ CP021997 12.7000 -173.850 TD 25 -1 5 270
1997240N12193 1997 75 EP CP OLIWA 1997-09-01 00:00:00 TS 12.7000 185.900 25 hurdat_epa main 1838 1838 O_____________ hurdat_epa CP021997 12.7000 -174.100 TD 25 -1 5 270
1997240N12193 1997 75 EP CP OLIWA 1997-09-01 03:00:00 TS 12.7000 185.658 main 1855 1855 P_____________ CP021997 12.7000 -174.343 TD 25 -1 5 270
1997240N12193 1997 75 EP CP OLIWA 1997-09-01 06:00:00 TS 12.7000 185.400 25 hurdat_epa main 1882 1882 O_____________ hurdat_epa CP021997 12.7000 -174.600 TD 25 -1 5 270
1997240N12193 1997 75 EP CP OLIWA 1997-09-01 09:00:00 TS 12.7000 185.107 main 1908 1908 P_____________ CP021997 12.7000 -174.893 TD 25 -1 6 270
1997240N12193 1997 75 EP CP OLIWA 1997-09-01 12:00:00 TS 12.7000 184.800 25 hurdat_epa main 1935 1935 O_____________ hurdat_epa CP021997 12.7000 -175.200 TD 25 -1 6 269
1997240N12193 1997 75 EP CP OLIWA 1997-09-01 15:00:00 TS 12.6925 184.500 main 1962 1962 P_____________ CP021997 12.6925 -175.500 TD 27 -1 6 270
1997240N12193 1997 75 EP CP OLIWA 1997-09-01 18:00:00 TS 12.7000 184.200 30 hurdat_epa main 1989 1989 O_____________ hurdat_epa CP021997 12.7000 -175.800 TD 30 -1 6 274
1997240N12193 1997 75 EP CP OLIWA 1997-09-01 21:00:00 TS 12.7350 183.892 main 2016 2016 P_____________ CP021997 12.7350 -176.108 TD 30 -1 6 280
1997240N12193 1997 75 EP CP OLIWA 1997-09-02 00:00:00 TS 12.8000 183.600 30 hurdat_epa main 2037 2037 O_____________ hurdat_epa CP021997 12.8000 -176.400 TD 30 -1 6 287
1997240N12193 1997 75 EP CP OLIWA 1997-09-02 03:00:00 TS 12.9000 183.335 main 2059 2059 P_____________ CP021997 12.9000 -176.665 TD 30 -1 5 292
1997240N12193 1997 75 EP CP OLIWA 1997-09-02 06:00:00 TS 13.0000 183.100 30 hurdat_epa main 2071 2071 O_____________ hurdat_epa CP021997 13.0000 -176.900 TD 30 -1 5 290
1997240N12193 1997 75 EP CP OLIWA 1997-09-02 09:00:00 TS 13.0530 182.892 main 2084 2084 P_____________ CP021997 13.0575 -177.108 TD 30 -1 4 284
1997240N12193 1997 75 EP CP OLIWA 1997-09-02 12:00:00 TS 13.1000 182.700 30 hurdat_epa main 2103 2103 O_____________ hurdat_epa CP021997 13.1000 -177.300 TD 30 -1 4 288
1997240N12193 1997 75 EP CP OLIWA 1997-09-02 15:00:00 TS 13.1755 182.504 main 2116 2116 P_____________ CP021997 13.1500 -177.493 TD 30 -1 4 292
1997240N12193 1997 75 EP CP OLIWA 1997-09-02 18:00:00 TS 13.2600 182.300 30 hurdat_epa main 2129 2129 O_____________ hurdat_epa CP021997 13.2000 -177.700 TD 30 -1 5 293
1997240N12193 1997 75 EP CP OLIWA 1997-09-02 21:00:00 TS 13.3490 182.076 main 2148 2142 P_____________ CP021997 13.2575 -177.942 TD 32 -1 5 290
1997240N12193 1997 75 EP CP OLIWA 1997-09-03 00:00:00 TS 13.4200 181.840 35 hurdat_epa main 2171 2171 O_____________ hurdat_epa CP021997 13.3000 -178.200 TS 35 0 5 284
1997240N12193 1997 75 EP CP OLIWA 1997-09-03 03:00:00 TS 13.4610 181.603 main 2184 2184 P_____________ CP021997 13.3150 -178.450 TS 35 0 5 275
1997240N12193 1997 75 EP CP OLIWA 1997-09-03 06:00:00 TS 13.4600 181.360 35 hurdat_epa main 2203 2203 O_____________ hurdat_epa CP021997 13.3000 -178.700 TS 35 0 5 264
1997240N12193 1997 75 EP CP OLIWA 1997-09-03 09:00:00 TS 13.4150 181.116 main 2237 2237 P_____________ CP021997 13.2575 -178.943 TS 35 0 5 256
1997240N12193 1997 75 EP CP OLIWA 1997-09-03 12:00:00 TS 13.3400 180.860 35 hurdat_epa main 2262 2262 O_____________ hurdat_epa CP021997 13.2000 -179.200 TS 35 0 5 253
1997240N12193 1997 75 EP CP OLIWA 1997-09-03 15:00:00 TS 13.2569 180.599 main 2290 2290 P_____________ CP021997 13.1424 -179.478 TS 35 0 6 255
1997240N12193 1997 75 EP CP OLIWA 1997-09-03 18:00:00 TS 13.1850 180.285 35 hurdat_epa main 2324 2324 OO____________ hurdat_epa CP021997 13.1000 -179.800 TS 35 0 13.6000 180.400 7 1000 0 0 0 7 262
1997240N12193 1997 75 WP MM OLIWA 1997-09-03 21:00:00 TS 13.1627 179.916 main 2363 2363 PP____________ CP021997 13.0924 179.838 TS 35 0 13.5914 -179.963 7 998 0 0 8 269
1997240N12193 1997 75 WP MM OLIWA 1997-09-04 00:00:00 TS 13.1750 179.480 45 cphc main 2401 2401 OO____________ hurdat_epa CP021997 13.1000 179.400 TS 35 0 13.6000 179.700 3 35 996 0 9 110 110 0 9 270
1997240N12193 1997 75 WP MM OLIWA 1997-09-04 03:00:00 TS 13.1594 178.944 main 2459 2459 PP____________ CP021997 13.0999 178.887 TS 35 0 13.6387 179.402 3 35 996 0 9 110 110 11 268
1997240N12193 1997 75 WP MM OLIWA 1997-09-04 06:00:00 TS 13.1353 178.347 35 996 tokyo main 2522 2522 OO____________ hurdat_epa CP021997 13.1000 178.300 TS 35 0 13.7000 179.100 3 35 996 0 9 110 110 0 12 267
1997240N12193 1997 75 WP MM OLIWA 1997-09-04 09:00:00 TS 13.0848 177.680 main 2581 2581 PP____________ CP021997 13.0848 177.680 TS 35 0 13.7429 178.747 3 0 9 13 268
1997240N12193 1997 75 WP MM OLIWA 1997-09-04 12:00:00 TS 13.1000 177.000 35 996 tokyo main 2649 2649 OP____________ hurdat_epa CP021997 13.1000 177.000 TS 35 0 13.7827 178.351 3 0 9 14 274
1997240N12193 1997 75 WP MM OLIWA 1997-09-04 15:00:00 TS 13.1699 176.265 main 2713 2713 PP____________ CP021997 13.1699 176.265 TS 35 0 13.8226 177.912 3 0 9 15 278
1997240N12193 1997 75 WP MM OLIWA 1997-09-04 18:00:00 TS 13.3000 175.500 40 994 tokyo main 2787 2787 OP____________ hurdat_epa CP021997 13.3000 175.500 TS 35 0 13.8659 177.433 3 0 9 15 282
1997240N12193 1997 75 WP MM OLIWA 1997-09-04 21:00:00 TS 13.4775 174.720 main 2858 2858 PP____________ CP021997 13.4775 174.720 TS 35 0 13.9158 176.914 3 0 9 15 285
1997240N12193 1997 75 WP MM OLIWA 1997-09-05 00:00:00 TS 13.7000 174.000 40 992 tokyo main 2873 2859 OP____________ hurdat_epa CP021997 13.7000 174.000 TS 35 0 13.9756 176.358 3 0 9 14 290
1997240N12193 1997 75 WP MM OLIWA 1997-09-05 03:00:00 TS 13.9498 173.397 main 2859 2858 PP____________ CP021997 13.9498 173.397 TS 35 0 14.0485 175.766 3 0 9 12 295
1997240N12193 1997 75 WP MM OLIWA 1997-09-05 06:00:00 TS 14.2000 172.900 40 992 tokyo main 2862 2857 OP____________ hurdat_epa CP021997 14.2000 172.900 TS 35 0 14.1379 175.139 3 0 9 10 297
1997240N12193 1997 75 WP MM OLIWA 1997-09-05 09:00:00 TS 14.4073 172.477 main 2862 2857 PP____________ CP021997 14.4073 172.477 TS 35 0 14.2468 174.477 3 0 9 9 297
1997240N12193 1997 75 WP MM OLIWA 1997-09-05 12:00:00 TS 14.6000 172.100 40 992 tokyo main 2862 2857 OP____________ hurdat_epa CP021997 14.6000 172.100 TS 35 0 14.3786 173.783 3 0 9 8 299
1997240N12193 1997 75 WP MM OLIWA 1997-09-05 15:00:00 TS 14.7953 171.766 main 2868 2863 PP____________ CP021997 14.7924 171.707 TS 35 0 14.5366 173.058 3 0 9 8 302
1997240N12193 1997 75 WP MM OLIWA 1997-09-05 18:00:00 TS 14.9947 171.437 45 990 tokyo main 2870 2870 OPOO__________ hurdat_epa CP021997 15.0000 171.300 TS 35 0 14.7240 172.302 3 0 9 14.9000 172.500 2 38 995 15.0000 172.000 TS 35 998 8 300
1997240N12193 1997 75 WP MM OLIWA 1997-09-05 21:00:00 TS 15.1993 171.029 main 2873 2868 PPPP__________ CP021997 15.2426 170.828 TS 35 0 14.9440 171.515 3 0 9 15.0182 171.595 2 38 995 15.1579 171.395 TS 37 996 10 295
1997240N12193 1997 75 WP MM OLIWA 1997-09-06 00:00:00 TS 15.4080 170.524 45 990 tokyo main 2872 2868 OOOO__________ hurdat_epa CP021997 15.5000 170.400 TS 35 0 15.2000 170.700 3 45 990 0 9 140 140 0 15.2000 170.700 2 38 995 15.3000 170.800 TS 40 994 11 294
1997240N12193 1997 75 WP MM OLIWA 1997-09-06 03:00:00 TS 15.6376 169.993 main 2873 2872 PPPP__________ CP021997 15.7565 170.239 TS 35 0 15.5022 169.841 3 45 990 0 9 140 140 15.4848 169.828 2 41 992 15.4272 170.215 TS 40 994 12 293
1997240N12193 1997 75 WP MM OLIWA 1997-09-06 06:00:00 TS 15.8857 169.371 45 990 tokyo main 2874 2836 OOOO__________ hurdat_epa CP021997 16.0000 169.900 TS 35 0 15.8000 169.000 3 45 990 0 9 140 140 0 15.8000 169.000 2 44 990 15.6000 169.600 TS 40 994 14 290
1997240N12193 1997 75 WP MM OLIWA 1997-09-06 09:00:00 TS 16.1242 168.582 main 2836 2800 PPPP__________ CP021997 16.2166 168.910 TS 35 0 16.0648 168.212 3 47 987 0 9 150 150 16.0648 168.212 2 44 990 15.8773 168.930 TS 42 992 16 287
1997240N12193 1997 75 WP MM OLIWA 1997-09-06 12:00:00 TS 16.3429 167.771 50 985 tokyo main 2800 2770 OOOO__________ hurdat_epa CP021997 16.4000 167.800 TS 35 0 16.3000 167.500 4 50 985 0 9 160 160 0 16.3000 167.500 2 44 990 16.2000 168.200 TS 45 990 15 286
1997240N12193 1997 75 WP MM OLIWA 1997-09-06 15:00:00 TS 16.5357 167.081 main 2770 2749 PPPP__________ CP021997 16.5567 167.082 TS 37 0 16.5073 166.855 4 50 985 0 9 160 160 16.5073 166.855 2 46 987 16.5074 167.407 TS 47 987 13 286
1997240N12193 1997 75 WP MM OLIWA 1997-09-06 18:00:00 TS 16.7143 166.457 50 985 tokyo main 2749 2727 OOOO__________ hurdat_epa CP021997 16.7000 166.500 TS 40 0 16.7000 166.300 4 50 985 0 9 160 160 0 16.7000 166.300 3 48 985 16.8000 166.600 STS 50 985 12 287
1997240N12193 1997 75 WP MM OLIWA 1997-09-06 21:00:00 TS 16.8949 165.845 main 2723 2709 PPPP__________ CP021997 16.8499 165.877 TS 42 0 16.8999 165.805 4 50 985 0 9 180 180 16.8999 165.805 3 48 985 17.0651 165.797 STS 50 985 12 288
1997240N12193 1997 75 WP MM OLIWA 1997-09-07 00:00:00 TS 17.0714 165.300 50 985 tokyo main 2712 2698 OOOO__________ hurdat_epa CP021997 17.0000 165.300 TS 45 0 17.1000 165.400 4 50 985 0 9 200 200 0 17.1000 165.400 3 48 985 17.3000 165.100 STS 50 985 10 290
1997240N12193 1997 75 WP MM OLIWA 1997-09-07 03:00:00 TS 17.2512 164.840 main 2701 2690 PPPP__________ CP021997 17.1573 164.777 TS 47 0 17.3073 165.092 4 50 985 0 9 200 200 17.3073 165.092 3 48 985 17.5146 164.582 STS 50 985 9 292
1997240N12193 1997 75 WP MM OLIWA 1997-09-07 06:00:00 TS 17.4143 164.429 50 985 tokyo main 2688 2674 OOOO__________ hurdat_epa CP021997 17.3000 164.300 TS 50 0 17.5000 164.800 4 50 985 0 9 200 200 0 17.5000 164.800 3 48 985 17.7000 164.200 STS 50 985 9 290
1997240N12193 1997 75 WP MM OLIWA 1997-09-07 09:00:00 TS 17.5453 164.005 main 2674 2662 PPPP__________ CP021997 17.4074 163.835 TS 52 0 17.6575 164.407 4 52 982 0 9 220 220 17.6575 164.407 3 48 985 17.8723 163.877 STS 52 982 8 287
1997240N12193 1997 75 WP MM OLIWA 1997-09-07 12:00:00 TS 17.6571 163.600 55 980 tokyo main 2671 2655 OOOO__________ hurdat_epa CP021997 17.5000 163.400 TS 55 0 17.8000 164.000 4 55 980 9 50 50 9 240 240 0 17.8000 164.000 3 48 985 18.0000 163.600 STS 55 980 8 287
1997240N12193 1997 75 WP MM OLIWA 1997-09-07 15:00:00 TS 17.7695 163.224 main 2660 2644 PPPP__________ CP021997 17.5999 162.992 TS 57 0 17.9574 163.650 4 55 980 9 50 50 9 240 240 17.9574 163.650 3 48 985 18.0725 163.300 STS 55 980 7 287
1997240N12193 1997 75 WP MM OLIWA 1997-09-07 18:00:00 TS 17.8714 162.857 55 980 tokyo main 2654 2638 OOOO__________ hurdat_epa CP021997 17.7000 162.600 TS 60 0 18.1000 163.300 4 55 980 9 50 50 9 240 240 0 18.1000 163.300 3 48 985 18.1000 163.000 STS 55 980 7 286
1997240N12193 1997 75 WP MM OLIWA 1997-09-07 21:00:00 TS 17.9699 162.481 main 2643 2623 PPPP__________ CP021997 17.8074 162.200 TS 60 0 18.2224 162.923 4 55 980 9 50 50 9 240 240 18.2299 162.923 3 51 982 18.1073 162.722 STS 55 980 8 283
1997240N12193 1997 75 WP MM OLIWA 1997-09-08 00:00:00 TS 18.0429 162.086 55 980 tokyo main 2623 2613 OOOO__________ hurdat_epa CP021997 17.9000 161.800 TS 60 0 18.3000 162.500 4 55 980 9 50 50 9 240 240 0 18.3000 162.500 3 54 980 18.1000 162.400 STS 55 980 8 278
1997240N12193 1997 75 WP MM OLIWA 1997-09-08 03:00:00 TS 18.0748 161.682 main 2613 2589 PPPP__________ CP021997 17.9573 161.422 TS 62 0 18.3223 162.037 4 57 977 9 55 55 9 240 240 18.2722 162.045 3 56 980 18.0998 162.002 STS 55 980 8 273
1997240N12193 1997 75 WP MM OLIWA 1997-09-08 06:00:00 TS 18.0857 161.214 60 975 tokyo main 2589 2565 OOOO__________ hurdat_epa CP021997 18.0000 161.000 HU 65 1 18.3000 161.500 4 60 975 9 60 60 9 240 240 0 18.2000 161.500 3 58 980 18.1000 161.500 STS 55 980 10 272
1997240N12193 1997 75 WP MM OLIWA 1997-09-08 09:00:00 TS 18.1043 160.643 main 2561 2534 PPPP__________ CP021997 18.0574 160.480 HU 65 1 18.2576 160.865 4 60 975 9 60 60 9 240 240 18.1425 160.830 3 58 980 18.1000 160.887 STS 57 977 11 271
1997240N12193 1997 75 WP MM OLIWA 1997-09-08 12:00:00 TS 18.1143 160.014 60 975 tokyo main 2534 2509 OOOO__________ hurdat_epa CP021997 18.1000 159.900 HU 65 1 18.2000 160.200 4 60 975 9 60 60 9 240 240 0 18.1000 160.100 3 58 980 18.1000 160.200 STS 60 975 12 270
1997240N12193 1997 75 WP MM OLIWA 1997-09-08 15:00:00 TS 18.1113 159.391 main 2509 2485 PPPP__________ CP021997 18.1074 159.307 HU 70 1 18.1495 159.615 4 62 972 9 60 60 9 240 240 18.0999 159.385 3 58 980 18.0998 159.508 STS 62 972 12 269
1997240N12193 1997 75 WP MM OLIWA 1997-09-08 18:00:00 TS 18.1000 158.757 65 970 tokyo main 2485 2463 OOOO__________ hurdat_epa CP021997 18.1000 158.700 HU 75 1 18.1000 159.000 5 65 970 9 60 60 9 240 240 0 18.1000 158.700 3 58 980 18.1000 158.800 T 65 970 12 269
1997240N12193 1997 75 WP MM OLIWA 1997-09-08 21:00:00 TS 18.0802 158.121 main 2459 2439 PPPP__________ CP021997 18.0997 158.107 HU 82 1 18.0277 158.250 5 67 967 9 67 67 9 240 240 18.0347 158.085 3 63 975 18.0999 158.085 T 67 967 12 269
1997240N12193 1997 75 WP MM OLIWA 1997-09-09 00:00:00 TS 18.0714 157.486 70 965 tokyo main 2439 2420 OOOO__________ hurdat_epa CP021997 18.1000 157.500 HU 90 2 18.0000 157.500 5 70 965 9 75 75 9 240 240 0 18.0000 157.500 4 68 970 18.1000 157.400 T 70 965 12 270
1997240N12193 1997 75 WP MM OLIWA 1997-09-09 03:00:00 TS 18.0901 156.856 main 2420 2403 PPPP__________ CP021997 18.0924 156.857 HU 97 3 18.0846 156.878 5 72 960 9 82 82 9 270 240 18.0848 156.900 4 72 965 18.0922 156.785 T 72 962 12 273
1997240N12193 1997 75 WP MM OLIWA 1997-09-09 06:00:00 TS 18.1286 156.229 75 955 tokyo main 2401 2393 OOOO__________ hurdat_epa CP021997 18.1000 156.200 HU 105 3 18.2000 156.300 5 75 955 9 90 90 3 300 240 0 18.2000 156.300 4 77 960 18.1000 156.200 T 75 960 12 274
1997240N12193 1997 75 WP MM OLIWA 1997-09-09 09:00:00 TS 18.1675 155.612 main 2396 2382 PPPP__________ CP021997 18.1347 155.557 HU 115 4 18.2496 155.722 5 77 950 9 105 105 3 325 270 18.2496 155.722 4 82 955 18.1347 155.607 T 77 957 12 275
1997240N12193 1997 75 WP MM OLIWA 1997-09-09 12:00:00 TS 18.2286 154.971 80 945 tokyo main 2382 2331 OOOO__________ hurdat_epa CP021997 18.2000 154.900 HU 125 4 18.3000 155.100 5 80 945 9 120 120 3 350 300 0 18.3000 155.100 5 87 950 18.2000 155.000 T 80 955 13 277
1997240N12193 1997 75 WP MM OLIWA 1997-09-09 15:00:00 TS 18.3210 154.274 main 2331 2282 PPPP__________ CP021997 18.2923 154.208 HU 132 4 18.3926 154.358 5 85 940 9 135 135 3 350 300 18.3925 154.365 5 87 950 18.2923 154.365 T 82 952 14 278
1997240N12193 1997 75 WP MM OLIWA 1997-09-09 18:00:00 TS 18.4286 153.557 90 935 tokyo main 2282 2234 OOOO__________ hurdat_epa CP021997 18.4000 153.500 HU 140 5 18.5000 153.600 5 90 935 9 150 150 3 350 300 0 18.5000 153.600 5 87 950 18.4000 153.700 ST 85 950 14 279
1997240N12193 1997 75 WP MM OLIWA 1997-09-09 21:00:00 TS 18.5240 152.861 main 2234 2187 PPPP__________ CP021997 18.4923 152.792 HU 140 5 18.5995 152.950 5 92 930 9 160 160 3 350 300 18.5997 152.892 5 92 945 18.4997 153.015 ST 87 947 13 279
1997240N12193 1997 75 WP MM OLIWA 1997-09-10 00:00:00 TS 18.6286 152.171 95 925 tokyo main 2187 2130 OOOO__________ hurdat_epa CP021997 18.6000 152.100 HU 140 5 18.7000 152.300 5 95 925 9 170 170 3 350 300 0 18.7000 152.200 5 97 940 18.6000 152.300 ST 90 945 13 280
1997240N12193 1997 75 WP MM OLIWA 1997-09-10 03:00:00 TS 18.7590 151.485 main 2130 2084 PPPP__________ CP021997 18.7496 151.450 HU 140 5 18.8075 151.550 5 97 922 9 175 175 3 350 300 18.8073 151.493 5 101 935 18.6999 151.550 ST 92 940 13 281
1997240N12193 1997 75 WP MM OLIWA 1997-09-10 06:00:00 TS 18.8857 150.800 100 920 tokyo main 2084 2044 OOOO__________ hurdat_epa CP021997 18.9000 150.800 HU 140 5 18.9000 150.800 5 100 920 9 180 180 3 350 300 0 18.9000 150.800 6 106 930 18.8000 150.800 ST 95 935 13 279
1997240N12193 1997 75 WP MM OLIWA 1997-09-10 09:00:00 TS 18.9755 150.114 main 2039 2001 PPPP__________ CP021997 19.0073 150.107 HU 140 5 18.9496 150.135 5 100 920 9 180 180 3 350 300 18.9497 150.142 6 106 930 18.8997 150.092 ST 97 932 13 278
1997240N12193 1997 75 WP MM OLIWA 1997-09-10 12:00:00 TS 19.0571 149.429 100 920 tokyo main 1996 1969 OOOO__________ hurdat_epa CP021997 19.1000 149.400 HU 140 5 19.0000 149.500 5 100 920 9 180 180 3 350 300 0 19.0000 149.500 6 106 930 19.0000 149.400 SuperT 100 930 13 278
1997240N12193 1997 75 WP MM OLIWA 1997-09-10 15:00:00 TS 19.1537 148.745 main 1955 1919 PPPP__________ CP021997 19.1997 148.700 HU 140 5 19.0922 148.857 5 100 917 9 180 180 3 350 300 19.0922 148.857 6 111 925 19.0922 148.700 SuperT 102 925 13 279
1997240N12193 1997 75 WP MM OLIWA 1997-09-10 18:00:00 TS 19.2571 148.057 100 915 tokyo main 1919 1891 OOOO__________ hurdat_epa CP021997 19.3000 148.000 HU 140 5 19.2000 148.200 5 100 915 9 180 180 3 350 300 0 19.2000 148.200 6 116 920 19.2000 148.000 SuperT 105 920 13 278
1997240N12193 1997 75 WP MM OLIWA 1997-09-10 21:00:00 TS 19.3470 147.352 main 1891 1844 PPPP__________ CP021997 19.3848 147.292 HU 140 5 19.2774 147.500 5 100 915 9 180 180 3 350 300 19.2774 147.500 6 116 920 19.3348 147.292 SuperT 105 920 13 279
1997240N12193 1997 75 WP MM OLIWA 1997-09-11 00:00:00 TS 19.4714 146.657 100 915 tokyo main 1844 1799 OOOO__________ hurdat_epa CP021997 19.5000 146.600 HU 140 5 19.4000 146.800 5 100 915 9 180 180 2 350 300 0 19.4000 146.800 6 116 920 19.5000 146.600 SuperT 105 920 13 284
1997240N12193 1997 75 WP MM OLIWA 1997-09-11 03:00:00 TS 19.6725 146.002 main 1799 1759 PPPP__________ CP021997 19.6847 145.943 HU 140 5 19.6346 146.150 5 100 915 9 180 180 2 350 300 19.6421 146.150 6 116 920 19.6922 145.942 SuperT 105 920 13 289
1997240N12193 1997 75 WP MM OLIWA 1997-09-11 06:00:00 TS 19.9000 145.357 100 915 tokyo main 1759 1718 OOOO__________ hurdat_epa CP021997 19.9000 145.300 HU 140 5 19.9000 145.500 5 100 915 9 180 180 2 350 300 0 19.9000 145.500 6 116 920 19.9000 145.300 SuperT 105 920 13 289
1997240N12193 1997 75 WP MM OLIWA 1997-09-11 09:00:00 TS 20.0916 144.695 main 1718 1676 PPPP__________ CP021997 20.0923 144.650 HU 137 5 20.1148 144.807 5 100 917 9 180 180 2 350 300 20.0573 144.807 6 111 925 20.0998 144.650 SuperT 102 925 13 287
1997240N12193 1997 75 WP MM OLIWA 1997-09-11 12:00:00 TS 20.2857 144.029 100 920 tokyo main 1671 1623 OOOO__________ hurdat_epa CP021997 20.3000 144.000 HU 135 4 20.3000 144.100 5 100 920 9 180 180 2 350 300 0 20.2000 144.100 6 106 930 20.3000 144.000 SuperT 100 930 13 288
1997240N12193 1997 75 WP MM OLIWA 1997-09-11 15:00:00 TS 20.4995 143.359 main 1623 1572 PPPP__________ CP021997 20.5423 143.350 HU 132 4 20.4424 143.385 5 100 920 9 180 180 2 350 300 20.3849 143.385 6 106 930 20.4998 143.342 SuperT 97 932 13 290
1997240N12193 1997 75 WP MM OLIWA 1997-09-11 18:00:00 TS 20.7286 142.700 100 920 tokyo main 1572 1527 OOOO__________ hurdat_epa CP021997 20.8000 142.700 HU 130 4 20.6000 142.700 5 100 920 9 180 180 2 350 300 0 20.6000 142.700 6 106 930 20.7000 142.700 ST 95 935 13 291
1997240N12193 1997 75 WP MM OLIWA 1997-09-11 21:00:00 TS 20.9572 142.070 main 1517 1473 PPPP__________ CP021997 21.0423 142.050 HU 127 4 20.8195 142.092 5 100 920 9 180 180 2 350 300 20.8270 142.100 6 106 930 20.8846 142.100 ST 92 937 13 292
1997240N12193 1997 75 WP MM OLIWA 1997-09-12 00:00:00 TS 21.2143 141.443 100 920 tokyo main 1469 1416 OOOO__________ hurdat_epa CP021997 21.3000 141.400 HU 125 4 21.1000 141.500 5 100 920 9 180 180 2 350 300 0 21.1000 141.500 6 106 930 21.1000 141.500 ST 90 940 13 295
1997240N12193 1997 75 WP MM OLIWA 1997-09-12 03:00:00 TS 21.5176 140.795 main 1416 1365 PPPP__________ CP021997 21.5922 140.757 HU 125 4 21.4422 140.865 5 100 920 9 180 180 2 350 300 21.4425 140.808 6 106 930 21.3698 140.865 ST 90 940 14 297
1997240N12193 1997 75 WP MM OLIWA 1997-09-12 06:00:00 TS 21.8429 140.129 100 920 tokyo main 1362 1312 OOOO__________ hurdat_epa CP021997 21.9000 140.100 HU 125 4 21.8000 140.200 5 100 920 9 180 180 2 350 300 0 21.8000 140.100 6 106 930 21.7000 140.200 ST 90 940 14 297
1997240N12193 1997 75 WP MM OLIWA 1997-09-12 09:00:00 TS 22.1484 139.438 main 1306 1234 PPPP__________ CP021997 22.1924 139.400 HU 122 4 22.0923 139.507 5 97 922 9 175 175 2 350 300 22.0921 139.449 6 106 930 22.0848 139.507 ST 90 940 14 296
1997240N12193 1997 75 WP MM OLIWA 1997-09-12 12:00:00 TS 22.4714 138.743 95 925 tokyo main 1228 1166 OOOO__________ hurdat_epa CP021997 22.5000 138.700 HU 120 4 22.4000 138.800 5 95 925 9 170 170 2 350 300 0 22.4000 138.800 6 106 930 22.5000 138.800 ST 90 940 14 298
1997240N12193 1997 75 WP MM OLIWA 1997-09-12 15:00:00 TS 22.8287 138.062 main 1166 1090 PPPP__________ CP021997 22.8346 138.042 HU 117 4 22.7849 138.085 5 92 927 9 165 165 2 337 312 22.7775 138.092 6 101 935 22.8999 138.085 ST 90 940 14 301
1997240N12193 1997 75 WP MM OLIWA 1997-09-12 18:00:00 TS 23.2143 137.400 90 930 tokyo main 1090 1020 OOOO__________ hurdat_epa CP021997 23.2000 137.400 HU 115 4 23.2000 137.400 5 90 930 9 160 160 9 325 325 0 23.2000 137.400 5 97 940 23.3000 137.400 ST 90 940 14 303
1997240N12193 1997 75 WP MM OLIWA 1997-09-12 21:00:00 TS 23.6072 136.760 main 1020 950 PPPP__________ CP021997 23.5848 136.742 HU 110 3 23.5846 136.784 5 90 932 9 155 155 9 325 325 23.6346 136.784 5 92 945 23.6921 136.784 ST 90 940 14 305
1997240N12193 1997 75 WP MM OLIWA 1997-09-13 00:00:00 TS 24.0286 136.143 90 935 tokyo main 945 870 OOOO__________ hurdat_epa CP021997 24.0000 136.100 HU 105 3 24.0000 136.200 5 90 935 9 150 150 9 325 325 0 24.1000 136.200 5 87 950 24.1000 136.200 ST 90 940 14 308
1997240N12193 1997 75 WP MM OLIWA 1997-09-13 03:00:00 TS 24.4927 135.529 main 865 800 PPPP__________ CP021997 24.4498 135.485 HU 105 3 24.4925 135.578 5 87 937 9 145 145 9 325 325 24.6148 135.593 5 87 950 24.5424 135.592 ST 87 942 14 310
1997240N12193 1997 75 WP MM OLIWA 1997-09-13 06:00:00 TS 24.9571 134.943 85 940 tokyo main 786 732 OOOO__________ hurdat_epa CP021997 24.9000 134.900 HU 105 3 25.0000 135.000 5 85 940 9 140 140 9 325 325 0 25.1000 135.000 5 87 950 25.0000 135.000 ST 85 945 13 311
1997240N12193 1997 75 WP MM OLIWA 1997-09-13 09:00:00 TS 25.3669 134.407 main 722 669 PPPP__________ CP021997 25.3071 134.349 HU 102 3 25.4255 134.579 5 85 942 9 135 135 9 337 337 25.4574 134.427 5 87 950 25.4572 134.442 ST 85 945 13 310
1997240N12193 1997 75 WP MM OLIWA 1997-09-13 12:00:00 TS 25.7714 133.871 85 945 tokyo main 659 592 OOOO__________ hurdat_epa CP021997 25.7000 133.800 HU 100 3 25.9000 134.100 5 85 945 9 130 130 9 350 350 0 25.8000 133.900 5 87 950 25.9000 133.900 ST 85 945 13 310
1997240N12193 1997 75 WP MM OLIWA 1997-09-13 15:00:00 TS 26.2059 133.289 80 950 tokyo main 592 531 POPP__________ CP021997 26.0999 133.200 HU 100 3 26.5000 133.400 5 80 950 9 130 130 9 350 350 0 26.2269 133.464 5 82 955 26.3147 133.357 ST 82 947 13 309
1997240N12193 1997 75 WP MM OLIWA 1997-09-13 18:00:00 TS 26.6000 132.729 80 950 tokyo main 528 469 OOOO__________ hurdat_epa CP021997 26.5000 132.600 HU 100 3 26.8000 132.900 5 80 950 9 120 120 9 350 350 0 26.7000 133.000 4 77 960 26.7000 132.800 T 80 950 13 308
1997240N12193 1997 75 WP MM OLIWA 1997-09-13 21:00:00 TS 27.0232 132.123 80 950 tokyo main 466 411 POPP__________ CP021997 26.9149 132.027 HU 97 3 27.2000 132.200 5 80 950 9 120 120 9 350 350 0 27.2379 132.358 4 72 965 27.0650 132.192 T 80 950 13 307
1997240N12193 1997 75 WP MM OLIWA 1997-09-14 00:00:00 TS 27.4000 131.557 80 950 tokyo main 411 370 OOOO__________ hurdat_epa CP021997 27.3000 131.500 HU 95 2 27.5000 131.600 5 80 950 9 110 110 9 350 350 0 27.7000 131.700 4 68 970 27.4000 131.600 T 80 950 12 305
1997240N12193 1997 75 WP MM OLIWA 1997-09-14 03:00:00 TS 27.6992 131.048 80 950 tokyo main 369 346 POPP__________ CP021997 27.6299 131.012 HU 92 2 27.7000 131.100 5 80 950 9 110 110 9 350 350 0 27.9524 131.139 4 68 970 27.7225 131.047 T 80 950 10 303
1997240N12193 1997 75 WP MM OLIWA 1997-09-14 06:00:00 TS 27.9286 130.629 75 955 tokyo main 346 324 OOOO__________ hurdat_epa CP021997 27.9000 130.600 HU 90 2 27.8000 130.700 5 75 955 9 110 110 9 350 350 0 28.1000 130.700 4 68 970 28.0000 130.600 T 80 950 8 303
1997240N12193 1997 75 WP MM OLIWA 1997-09-14 09:00:00 TS 28.1395 130.289 75 955 tokyo main 325 306 POPP__________ CP021997 28.1224 130.255 HU 90 2 28.0000 130.300 5 75 955 9 110 110 9 350 350 0 28.2647 130.405 4 68 970 28.2222 130.297 T 80 950 6 307
1997240N12193 1997 75 WP MM OLIWA 1997-09-14 12:00:00 TS 28.3143 130.043 75 955 tokyo main 308 297 OOOO__________ hurdat_epa CP021997 28.3000 130.000 HU 90 2 28.2000 130.000 5 75 955 9 110 110 9 350 350 0 28.4000 130.200 4 68 970 28.4000 130.100 T 80 950 5 311
1997240N12193 1997 75 WP MM OLIWA 1997-09-14 15:00:00 TS 28.4553 129.869 75 955 tokyo main 289 281 POPP__________ CP021997 28.4574 129.820 HU 87 2 28.3000 129.900 5 75 955 9 110 110 9 350 350 0 28.5000 129.977 4 68 970 28.5574 129.927 T 80 950 4 317
1997240N12193 1997 75 WP MM OLIWA 1997-09-14 18:00:00 TS 28.6000 129.743 75 955 tokyo main 284 274 OOOO__________ hurdat_epa CP021997 28.6000 129.700 HU 85 2 28.5000 129.800 5 75 955 9 110 110 9 350 350 0 28.6000 129.800 4 68 970 28.7000 129.800 T 80 950 4 324
1997240N12193 1997 75 WP MM OLIWA 1997-09-14 21:00:00 TS 28.7496 129.626 75 955 tokyo main 277 257 POPP__________ CP021997 28.7425 129.577 HU 85 2 28.7000 129.700 5 75 955 9 110 110 9 350 350 0 28.7349 129.685 4 68 970 28.8425 129.685 T 80 950 4 331
1997240N12193 1997 75 WP MM OLIWA 1997-09-15 00:00:00 TS 28.9143 129.543 75 955 tokyo main 261 241 OOOO__________ hurdat_epa CP021997 28.9000 129.500 HU 85 2 28.9000 129.600 5 75 955 9 110 110 8 375 240 0 28.9000 129.600 4 68 970 29.0000 129.600 T 80 950 4 342
1997240N12193 1997 75 WP MM OLIWA 1997-09-15 03:00:00 TS 29.1114 129.497 75 955 tokyo main 241 221 POPP__________ CP021997 29.0775 129.470 HU 85 2 29.2000 129.600 5 75 955 9 110 110 8 375 240 0 29.0850 129.470 4 68 970 29.1850 129.528 T 80 950 4 354
1997240N12193 1997 75 WP MM OLIWA 1997-09-15 06:00:00 TS 29.3286 129.500 75 955 tokyo main 221 190 OOOO__________ hurdat_epa CP021997 29.3000 129.500 HU 85 2 29.4000 129.600 5 75 955 9 110 110 8 375 240 0 29.3000 129.400 4 68 970 29.4000 129.500 T 80 950 5 7
1997240N12193 1997 75 WP MM OLIWA 1997-09-15 09:00:00 TS 29.5961 129.554 75 955 tokyo main 187 152 POPP__________ CP021997 29.5775 129.570 HU 82 1 29.7000 129.600 5 75 955 9 110 110 8 375 240 0 29.5275 129.470 4 68 970 29.6350 129.527 T 80 950 6 15
1997240N12193 1997 75 WP MM OLIWA 1997-09-15 12:00:00 TS 29.9000 129.671 75 960 tokyo main 152 117 OOOO__________ hurdat_epa CP021997 29.9000 129.700 HU 80 1 30.0000 129.700 5 75 960 8 110 80 8 375 220 0 29.8000 129.600 4 68 970 29.9000 129.600 T 80 950 7 19
1997240N12193 1997 75 WP MM OLIWA 1997-09-15 15:00:00 TS 30.2067 129.803 75 960 tokyo main 117 80 POPP__________ CP021997 30.2199 129.870 HU 77 1 30.3000 129.800 5 75 960 8 110 80 8 375 220 0 30.1049 129.678 4 68 970 30.1624 129.663 T 77 952 7 23
1997240N12193 1997 75 WP MM OLIWA 1997-09-15 18:00:00 TS 30.5714 130.000 75 960 tokyo main 69 22 OOOO__________ hurdat_epa CP021997 30.6000 130.100 HU 75 1 30.6000 130.000 5 75 960 8 110 80 8 375 220 0 30.5000 129.800 4 68 970 30.5000 129.800 T 75 955 9 24
1997240N12193 1997 75 WP MM OLIWA 1997-09-15 21:00:00 TS 31.0180 130.223 75 960 tokyo main 22 0 POPP__________ CP021997 31.0473 130.356 HU 72 1 31.0000 130.100 5 75 960 8 110 80 8 350 220 0 30.9973 129.991 4 63 975 30.9399 130.048 T 72 957 10 25
1997240N12193 1997 75 WP MM OLIWA 1997-09-15 23:00:00 TS 31.3570 130.435 75 960 tokyo main 0 0 POPP__________ CP021997 31.4025 130.573 HU 70 1 31.2000 130.300 5 75 960 8 110 80 8 350 220 1 31.3889 130.181 4 59 978 31.2999 130.273 T 70 959 12 27
1997240N12193 1997 75 WP MM OLIWA 1997-09-16 00:00:00 TS 31.5714 130.557 70 965 tokyo main 9 0 OOOO__________ hurdat_epa CP021997 31.6000 130.700 HU 70 1 31.5000 130.400 5 70 965 8 110 80 9 260 260 0 31.6000 130.300 3 58 980 31.5000 130.400 T 70 960 15 28
1997240N12193 1997 75 WP MM OLIWA 1997-09-16 03:00:00 TS 32.2483 130.982 65 970 tokyo main 0 0 POPP__________ CP021997 32.2922 131.140 HU 67 1 32.1000 130.800 5 65 970 8 100 80 9 260 260 0 32.2844 130.711 3 58 980 32.1848 130.805 T 67 965 16 30
1997240N12193 1997 75 WP MM OLIWA 1997-09-16 06:00:00 TS 32.9714 131.529 55 980 tokyo main 0 0 OOOO__________ hurdat_epa CP021997 33.0000 131.700 HU 65 1 32.9000 131.300 4 55 980 9 60 60 9 260 260 0 33.0000 131.300 3 58 980 32.9000 131.300 T 65 970 17 38
1997240N12193 1997 75 WP MM OLIWA 1997-09-16 09:00:00 TS 33.5888 132.209 50 985 tokyo main 21 0 POPP__________ CP021997 33.5799 132.363 HU 62 0 33.6000 132.100 4 50 985 0 9 260 260 0 33.6800 132.082 3 51 985 33.5216 131.827 T 60 975 17 46
1997240N12193 1997 75 WP MM OLIWA 1997-09-16 12:00:00 TS 34.1444 132.989 45 992 tokyo main 11 0 OOOO__________ hurdat_epa CP021997 34.1000 133.100 TS 60 0 34.2000 132.900 3 45 992 0 9 240 240 0 34.3000 133.000 2 44 990 34.1000 132.500 STS 55 980 17 51
1997240N12193 1997 75 WP MM OLIWA 1997-09-16 15:00:00 TS 34.6411 133.803 35 998 tokyo main 0 0 POPP__________ CP021997 34.5995 133.836 TS 52 0 34.7000 133.700 3 35 998 0 9 160 160 1 34.7406 133.983 2 41 992 34.6572 133.384 STS 50 985 17 54
1997240N12193 1997 75 WP MM OLIWA 1997-09-16 18:00:00 TS 35.1625 134.679 35 1000 tokyo main 0 0 OOOO__________ hurdat_epa CP021997 35.1000 134.600 TS 45 0 35.3000 134.900 3 35 1000 0 9 120 120 0 35.3000 134.900 2 38 995 35.2000 134.400 TS 45 990 17 52
1997240N12193 1997 75 WP MM OLIWA 1997-09-16 21:00:00 MX 35.7201 135.474 1002 tokyo main 18 0 POP___________ CP021997 35.6112 135.350 TS 40 0 35.9000 135.900 6 1002 0 0 0 36.2323 135.611 2 33 998 TS 20 48
1997240N12193 1997 75 WP MM OLIWA 1997-09-17 00:00:00 MX 36.4824 136.459 1004 tokyo main 0 0 OOO___________ hurdat_epa CP021997 36.2000 136.200 TS 35 0 37.1000 137.300 6 1004 0 0 0 37.4000 136.200 1 29 1002 23 45
1997240N12193 1997 75 WP MM OLIWA 1997-09-17 03:00:00 MX 37.3196 137.491 main 26 26 PP____________ CP021997 36.9154 137.236 TS 30 -1 38.1279 138.002 6 1004 0 0 1 26 40
1997240N12193 1997 75 WP MM OLIWA 1997-09-17 06:00:00 MX 38.4500 138.500 1004 tokyo main 79 13 OO____________ hurdat_epa CP021997 37.7000 138.400 TD 25 -1 39.2000 138.600 6 1004 0 0 0 38 29
1997240N12193 1997 75 WP MM OLIWA 1997-09-17 09:00:00 ET 40.6582 139.875 main 8 0 _P____________ CP021997 TD -1 40.6582 139.875 6 1006 0 0 43 34
1997240N12193 1997 75 WP MM OLIWA 1997-09-17 12:00:00 ET 42.0000 141.600 1008 tokyo main 39 0 _O____________ 42.0000 141.600 6 1008 0 0 0 34 54
1997240N12193 1997 75 WP MM OLIWA 1997-09-17 15:00:00 ET 42.7019 143.606 main 0 0 _P____________ 42.7019 143.606 6 1008 0 0 33 67
1997240N12193 1997 75 WP MM OLIWA 1997-09-17 18:00:00 ET 43.3000 145.800 1008 tokyo main 16 16 _O____________ 43.3000 145.800 6 1008 0 0 0 37 62
1997240N12193 1997 75 WP MM OLIWA 1997-09-17 21:00:00 ET 44.4025 148.073 main 59 36 _P____________ 44.4025 148.073 6 1008 0 0 38 57
1997240N12193 1997 75 WP MM OLIWA 1997-09-18 00:00:00 ET 45.4000 150.300 1008 tokyo main 50 50 _O____________ 45.4000 150.300 6 1008 0 0 0 32 65
1997240N12193 1997 75 WP MM OLIWA 1997-09-18 03:00:00 ET 45.7916 152.241 main 142 142 _P____________ 45.7916 152.241 6 1008 0 0 26 77
1997240N12193 1997 75 WP MM OLIWA 1997-09-18 06:00:00 ET 46.0000 154.000 1008 tokyo main 276 276 _O____________ 46.0000 154.000 6 1008 0 0 0 24 76
1997240N12193 1997 75 WP MM OLIWA 1997-09-18 09:00:00 ET 46.3722 155.599 main 399 382 _P____________ 46.3722 155.599 6 1008 0 0 25 72
1997240N12193 1997 75 WP MM OLIWA 1997-09-18 12:00:00 ET 46.8000 157.500 1008 tokyo main 387 386 _O____________ 46.8000 157.500 6 1008 0 0 0 33 74
1997240N12193 1997 75 WP MM OLIWA 1997-09-18 15:00:00 ET 47.2873 160.230 main 449 449 _P____________ 47.2873 160.230 6 1009 0 0 40 79
1997240N12193 1997 75 WP MM OLIWA 1997-09-18 18:00:00 ET 47.6000 163.300 1010 tokyo main 588 588 _O____________ 47.6000 163.300 6 1010 0 0 0 40 87
1997240N12193 1997 75 WP MM OLIWA 1997-09-18 21:00:00 ET 47.5081 166.114 main 743 743 _P____________ 47.5081 166.114 6 1011 0 0 38 95
1997240N12193 1997 75 WP MM OLIWA 1997-09-19 00:00:00 ET 47.3000 168.900 1012 tokyo main 894 894 _O____________ 47.3000 168.900 6 1012 0 0 0 38 94
1997240N12193 1997 75 WP MM OLIWA 1997-09-19 03:00:00 ET 47.2295 171.790 main 1054 1054 _P____________ 47.2295 171.790 6 1012 0 0 39 91
1997240N12193 1997 75 WP MM OLIWA 1997-09-19 06:00:00 ET 47.2000 174.700 1012 tokyo main 1206 1157 _O____________ 47.2000 174.700 6 1012 0 0 0 39 91
1997240N12193 1997 75 WP MM OLIWA 1997-09-19 09:00:00 ET 47.1679 177.566 main 1146 1005 _P____________ 47.1679 177.566 6 1012 0 0 39 91
1997240N12193 1997 75 EP CP OLIWA 1997-09-19 12:00:00 ET 47.1000 180.400 main 994 _O____________ 47.1000 180.400 6 1012 0 0 0 38 92

About IBTrACS Database

This database is a web-friendly format of International Best Track Archive for Climate Stewardship (IBTrACS), a global best track data archive curated by NOAA dating back to 1842.

Updated: 2021-10-21